Dobbins Air Reserve Base Airport
KMGE : now visible

Airfield :











YOU CAN JOIN US ON...

 
LOGIN :

Register | Disclaimer

   EN    FR    IT 

 









Legend :    VFR   Marginal VFR   IFR   Intensive IFR   Very Intensive IFR
Visi :
Ceiling :
>= 8 km
>= 3000ft
5 to 8 km
1000 to 3000 ft
1500m to 5 km
500 to 1000 ft
800 to 1500m
200 to 500 ft
< 800m
< 200 ft
Symbols :   Thunderstorms  Fog  Heavy snow  Heavy precipitations  Wind > 20 kt






- Airport Elevation : 1068 ft


KMGE - Dobbins Air Reserve Base

CURRENT METAR :
  • 270811Z AUTO 08007KT 4SM BR OVC003 08/08 A3014 RMK AO2 SLP209 $

EXPIRED METARs :
  • 270756Z AUTO 09005KT 5SM BR OVC004 08/08 A3014 RMK AO2 SLP209 T00810080 $
  • 270656Z AUTO 09007KT 4SM BR OVC003 08/08 A3015 RMK AO2 SLP213 T00820081 $
  • 270556Z AUTO 08009KT 4SM BR OVC003 08/08 A3013 RMK AO2 SLPNO 60000 T00820081 10093 20082 58001 $

TAF TAF KMGE
Valid from the 27 at 06:00 until the 28 at 12:00 UTC


270600Z 2706/2812 11009KT 6000 BR OVC004 QNH3009INS
BECMG 2714/2715 16009KT 9999 NSW BKN015 QNH3016INS
BECMG 2717/2718 18009KT 9999 SCT020 QNH3012INS
BECMG 2805/2806 VRB06KT 8000 BR BKN010 QNH3011INS
BECMG 2809/2810 VRB06KT 6000 BR OVC004 QNH3012INS TX20/2720Z TN09/2706Z
KZTL FIR / North America



MET'MAP, your aeronautical weather chart ! - Copyright ORBIFLY December 2007 - Disclaimer

ORBIFLY MET'MAP TEAM :

Programming & Development : Alexandra Zaïnal
Concept & original design : Baudouin d'Aumeries
Assistance for programming : Marc-Olivier Méhu
Technical & hardware support : Manuel Goepfert

Contact : metmap@orbifly.com




SOURCES & CREDITS :

   NOAA       Earth
Advisory